sensor_id;sensor_type;location;lat;lon;timestamp;pressure;altitude;pressure_sealevel;temperature;humidity
10921;BME280;5513;50.580;8.818;2023-01-29T00:00:30;100370.13;;;0.50;100.00
10921;BME280;5513;50.580;8.818;2023-01-29T00:02:59;100366.66;;;0.36;100.00
10921;BME280;5513;50.580;8.818;2023-01-29T00:05:27;100375.38;;;0.39;100.00
10921;BME280;5513;50.580;8.818;2023-01-29T00:07:56;100381.41;;;0.47;100.00
10921;BME280;5513;50.580;8.818;2023-01-29T00:10:25;100376.19;;;0.47;100.00
10921;BME280;5513;50.580;8.818;2023-01-29T00:12:58;100367.53;;;0.42;100.00
10921;BME280;5513;50.580;8.818;2023-01-29T00:15:26;100357.16;;;0.32;100.00
10921;BME280;5513;50.580;8.818;2023-01-29T00:17:54;100360.59;;;0.37;100.00
10921;BME280;5513;50.580;8.818;2023-01-29T00:20:23;100358.88;;;0.28;100.00
10921;BME280;5513;50.580;8.818;2023-01-29T00:22:51;100354.53;;;0.25;100.00
10921;BME280;5513;50.580;8.818;2023-01-29T00:25:19;100351.06;;;0.31;100.00
10921;BME280;5513;50.580;8.818;2023-01-29T00:27:48;100353.69;;;0.30;100.00
10921;BME280;5513;50.580;8.818;2023-01-29T00:30:19;100345.88;;;0.19;100.00
10921;BME280;5513;50.580;8.818;2023-01-29T00:32:48;100347.63;;;0.20;100.00
10921;BME280;5513;50.580;8.818;2023-01-29T00:35:17;100341.53;;;0.24;100.00
10921;BME280;5513;50.580;8.818;2023-01-29T00:37:45;100337.22;;;0.15;100.00
10921;BME280;5513;50.580;8.818;2023-01-29T00:40:14;100340.69;;;0.14;100.00
10921;BME280;5513;50.580;8.818;2023-01-29T00:42:43;100340.69;;;0.08;100.00
10921;BME280;5513;50.580;8.818;2023-01-29T00:45:32;100334.66;;;0.03;100.00
10921;BME280;5513;50.580;8.818;2023-01-29T00:48:04;100324.25;;;-0.12;100.00
10921;BME280;5513;50.580;8.818;2023-01-29T00:50:32;100331.22;;;-0.08;100.00
10921;BME280;5513;50.580;8.818;2023-01-29T00:53:01;100331.19;;;-0.05;100.00
10921;BME280;5513;50.580;8.818;2023-01-29T00:55:29;100326.84;;;0.02;100.00
10921;BME280;5513;50.580;8.818;2023-01-29T00:57:57;100324.28;;;-0.32;100.00
10921;BME280;5513;50.580;8.818;2023-01-29T01:00:26;100323.44;;;-0.54;100.00
10921;BME280;5513;50.580;8.818;2023-01-29T01:02:55;100319.09;;;-0.50;100.00
10921;BME280;5513;50.580;8.818;2023-01-29T01:05:32;100321.69;;;-0.43;100.00
10921;BME280;5513;50.580;8.818;2023-01-29T01:08:01;100316.47;;;-0.40;100.00
10921;BME280;5513;50.580;8.818;2023-01-29T01:10:31;100310.41;;;-0.43;100.00
10921;BME280;5513;50.580;8.818;2023-01-29T01:13:01;100300.88;;;-0.49;100.00
10921;BME280;5513;50.580;8.818;2023-01-29T01:15:33;100296.53;;;-0.41;100.00
10921;BME280;5513;50.580;8.818;2023-01-29T01:18:05;100293.00;;;-0.20;100.00
10921;BME280;5513;50.580;8.818;2023-01-29T01:20:34;100293.91;;;-0.18;100.00
10921;BME280;5513;50.580;8.818;2023-01-29T01:23:03;100292.19;;;-0.31;100.00
10921;BME280;5513;50.580;8.818;2023-01-29T01:25:32;100290.47;;;-0.34;100.00
10921;BME280;5513;50.580;8.818;2023-01-29T01:28:00;100291.34;;;-0.62;100.00
10921;BME280;5513;50.580;8.818;2023-01-29T01:30:29;100295.69;;;-0.69;100.00
10921;BME280;5513;50.580;8.818;2023-01-29T01:32:58;100298.28;;;-0.46;100.00
10921;BME280;5513;50.580;8.818;2023-01-29T01:35:28;100296.53;;;-0.61;100.00
10921;BME280;5513;50.580;8.818;2023-01-29T01:37:57;100287.91;;;-0.67;100.00
10921;BME280;5513;50.580;8.818;2023-01-29T01:40:27;100292.22;;;-0.80;100.00
10921;BME280;5513;50.580;8.818;2023-01-29T01:42:57;100292.19;;;-1.21;100.00
10921;BME280;5513;50.580;8.818;2023-01-29T01:45:30;100291.34;;;-1.03;100.00
10921;BME280;5513;50.580;8.818;2023-01-29T01:48:03;100288.75;;;-0.96;100.00
10921;BME280;5513;50.580;8.818;2023-01-29T01:50:38;100297.31;;;-1.46;100.00
10921;BME280;5513;50.580;8.818;2023-01-29T01:53:10;100293.91;;;-1.34;100.00
10921;BME280;5513;50.580;8.818;2023-01-29T01:55:43;100298.22;;;-1.27;100.00
10921;BME280;5513;50.580;8.818;2023-01-29T01:58:17;100303.41;;;-1.27;100.00
10921;BME280;5513;50.580;8.818;2023-01-29T02:00:50;100310.41;;;-1.13;100.00
10921;BME280;5513;50.580;8.818;2023-01-29T02:03:20;100310.41;;;-0.97;100.00
10921;BME280;5513;50.580;8.818;2023-01-29T02:06:08;100318.19;;;-1.00;100.00
10921;BME280;5513;50.580;8.818;2023-01-29T02:08:57;100316.50;;;-0.92;100.00
10921;BME280;5513;50.580;8.818;2023-01-29T02:11:44;100328.63;;;-0.86;100.00
10921;BME280;5513;50.580;8.818;2023-01-29T02:14:12;100333.84;;;-0.86;100.00
10921;BME280;5513;50.580;8.818;2023-01-29T02:16:41;100345.09;;;-0.85;100.00
10921;BME280;5513;50.580;8.818;2023-01-29T02:19:15;100346.84;;;-0.84;100.00
10921;BME280;5513;50.580;8.818;2023-01-29T02:25:32;100336.44;;;-0.75;100.00
10921;BME280;5513;50.580;8.818;2023-01-29T02:28:13;100337.31;;;-0.73;100.00
10921;BME280;5513;50.580;8.818;2023-01-29T02:30:47;100338.16;;;-0.77;100.00
10921;BME280;5513;50.580;8.818;2023-01-29T02:33:28;100337.31;;;-0.75;100.00
10921;BME280;5513;50.580;8.818;2023-01-29T02:36:04;100330.38;;;-0.80;100.00
10921;BME280;5513;50.580;8.818;2023-01-29T02:38:43;100327.75;;;-0.88;100.00
10921;BME280;5513;50.580;8.818;2023-01-29T02:41:22;100330.34;;;-0.91;100.00
10921;BME280;5513;50.580;8.818;2023-01-29T02:43:58;100321.69;;;-0.89;100.00
10921;BME280;5513;50.580;8.818;2023-01-29T02:46:34;100326.03;;;-0.92;100.00
10921;BME280;5513;50.580;8.818;2023-01-29T02:49:09;100309.53;;;-1.00;100.00
10921;BME280;5513;50.580;8.818;2023-01-29T02:51:43;100306.97;;;-0.94;100.00
10921;BME280;5513;50.580;8.818;2023-01-29T02:54:19;100313.88;;;-0.98;100.00
10921;BME280;5513;50.580;8.818;2023-01-29T02:56:53;100320.84;;;-0.84;100.00
10921;BME280;5513;50.580;8.818;2023-01-29T02:59:30;100309.53;;;-0.88;100.00
10921;BME280;5513;50.580;8.818;2023-01-29T03:02:02;100314.75;;;-0.91;100.00
10921;BME280;5513;50.580;8.818;2023-01-29T03:04:39;100323.41;;;-0.89;100.00
10921;BME280;5513;50.580;8.818;2023-01-29T03:07:15;100310.41;;;-0.98;100.00
10921;BME280;5513;50.580;8.818;2023-01-29T03:10:13;100316.47;;;-1.05;100.00
10921;BME280;5513;50.580;8.818;2023-01-29T03:12:46;100306.06;;;-1.01;100.00
10921;BME280;5513;50.580;8.818;2023-01-29T03:15:22;100306.94;;;-0.99;100.00
10921;BME280;5513;50.580;8.818;2023-01-29T03:17:56;100309.53;;;-1.03;100.00
10921;BME280;5513;50.580;8.818;2023-01-29T03:20:28;100299.16;;;-1.05;100.00
10921;BME280;5513;50.580;8.818;2023-01-29T03:23:02;100293.06;;;-1.11;100.00
10921;BME280;5513;50.580;8.818;2023-01-29T03:25:33;100287.00;;;-1.12;100.00
10921;BME280;5513;50.580;8.818;2023-01-29T03:28:20;100286.13;;;-1.16;100.00
10921;BME280;5513;50.580;8.818;2023-01-29T03:31:11;100295.66;;;-1.07;100.00
10921;BME280;5513;50.580;8.818;2023-01-29T03:34:00;100295.66;;;-0.98;100.00
10921;BME280;5513;50.580;8.818;2023-01-29T03:36:42;100315.56;;;-1.24;100.00
10921;BME280;5513;50.580;8.818;2023-01-29T03:39:14;100330.28;;;-1.28;100.00
10921;BME280;5513;50.580;8.818;2023-01-29T03:41:47;100320.75;;;-1.26;100.00
10921;BME280;5513;50.580;8.818;2023-01-29T03:44:28;100320.75;;;-1.33;100.00
10921;BME280;5513;50.580;8.818;2023-01-29T03:47:07;100322.44;;;-1.37;100.00
10921;BME280;5513;50.580;8.818;2023-01-29T03:49:51;100308.59;;;-1.36;100.00
10921;BME280;5513;50.580;8.818;2023-01-29T03:52:25;100311.19;;;-1.42;100.00
10921;BME280;5513;50.580;8.818;2023-01-29T03:55:03;100297.34;;;-1.39;100.00
10921;BME280;5513;50.580;8.818;2023-01-29T03:57:39;100289.50;;;-1.50;100.00
10921;BME280;5513;50.580;8.818;2023-01-29T04:00:17;100300.72;;;-1.57;100.00
10921;BME280;5513;50.580;8.818;2023-01-29T04:02:55;100305.09;;;-1.52;100.00
10921;BME280;5513;50.580;8.818;2023-01-29T04:05:30;100315.41;;;-1.68;100.00
10921;BME280;5513;50.580;8.818;2023-01-29T04:08:05;100314.50;;;-1.77;100.00
10921;BME280;5513;50.580;8.818;2023-01-29T04:10:42;100317.16;;;-1.70;100.00
10921;BME280;5513;50.580;8.818;2023-01-29T04:13:13;100323.13;;;-1.90;100.00
10921;BME280;5513;50.580;8.818;2023-01-29T04:15:46;100330.09;;;-1.80;100.00
10921;BME280;5513;50.580;8.818;2023-01-29T04:18:18;100330.09;;;-1.75;100.00
10921;BME280;5513;50.580;8.818;2023-01-29T04:20:47;100341.25;;;-1.94;100.00
10921;BME280;5513;50.580;8.818;2023-01-29T04:23:21;100330.00;;;-1.95;100.00
10921;BME280;5513;50.580;8.818;2023-01-29T04:26:08;100323.97;;;-1.91;100.00
10921;BME280;5513;50.580;8.818;2023-01-29T04:28:53;100340.41;;;-1.90;100.00
10921;BME280;5513;50.580;8.818;2023-01-29T04:31:31;100336.00;;;-2.04;100.00
10921;BME280;5513;50.580;8.818;2023-01-29T04:34:10;100330.78;;;-2.11;100.00
10921;BME280;5513;50.580;8.818;2023-01-29T04:36:45;100336.81;;;-2.14;100.00
10921;BME280;5513;50.580;8.818;2023-01-29T04:39:23;100346.38;;;-2.10;100.00
10921;BME280;5513;50.580;8.818;2023-01-29T04:41:56;100332.53;;;-2.06;100.00
10921;BME280;5513;50.580;8.818;2023-01-29T04:44:37;100323.88;;;-2.05;100.00
10921;BME280;5513;50.580;8.818;2023-01-29T04:47:15;100316.97;;;-2.06;100.00
10921;BME280;5513;50.580;8.818;2023-01-29T04:49:52;100311.75;;;-2.10;100.00
10921;BME280;5513;50.580;8.818;2023-01-29T04:52:32;100310.84;;;-2.20;100.00
10921;BME280;5513;50.580;8.818;2023-01-29T04:55:08;100297.91;;;-2.11;100.00
10921;BME280;5513;50.580;8.818;2023-01-29T04:57:46;100298.78;;;-2.06;100.00
10921;BME280;5513;50.580;8.818;2023-01-29T05:00:24;100291.00;;;-2.07;100.00
10921;BME280;5513;50.580;8.818;2023-01-29T05:02:55;100294.47;;;-2.05;100.00
10921;BME280;5513;50.580;8.818;2023-01-29T05:05:28;100277.16;;;-2.06;100.00
10921;BME280;5513;50.580;8.818;2023-01-29T05:07:58;100284.91;;;-2.15;100.00
10921;BME280;5513;50.580;8.818;2023-01-29T05:10:30;100284.06;;;-2.11;100.00
10921;BME280;5513;50.580;8.818;2023-01-29T05:13:01;100285.00;;;-2.02;100.00
10921;BME280;5513;50.580;8.818;2023-01-29T05:15:36;100293.66;;;-1.95;100.00
10921;BME280;5513;50.580;8.818;2023-01-29T05:18:07;100290.19;;;-1.94;100.00
10921;BME280;5513;50.580;8.818;2023-01-29T05:20:39;100290.22;;;-1.89;100.00
10921;BME280;5513;50.580;8.818;2023-01-29T05:23:09;100290.28;;;-1.82;100.00
10921;BME280;5513;50.580;8.818;2023-01-29T05:25:38;100293.72;;;-1.81;100.00
10921;BME280;5513;50.580;8.818;2023-01-29T05:28:08;100296.38;;;-1.72;100.00
10921;BME280;5513;50.580;8.818;2023-01-29T05:30:44;100304.97;;;-1.82;100.00
10921;BME280;5513;50.580;8.818;2023-01-29T05:33:15;100304.13;;;-1.80;100.00
10921;BME280;5513;50.580;8.818;2023-01-29T05:35:45;100307.50;;;-1.97;100.00
10921;BME280;5513;50.580;8.818;2023-01-29T05:38:15;100297.16;;;-1.84;100.00
10921;BME280;5513;50.580;8.818;2023-01-29T05:40:44;100294.59;;;-1.82;100.00
10921;BME280;5513;50.580;8.818;2023-01-29T05:43:14;100298.88;;;-1.84;100.00
10921;BME280;5513;50.580;8.818;2023-01-29T05:45:50;100299.75;;;-1.85;100.00
10921;BME280;5513;50.580;8.818;2023-01-29T05:48:19;100291.09;;;-1.92;100.00
10921;BME280;5513;50.580;8.818;2023-01-29T05:50:50;100284.03;;;-2.14;100.00
10921;BME280;5513;50.580;8.818;2023-01-29T05:53:19;100277.16;;;-2.06;100.00
10921;BME280;5513;50.580;8.818;2023-01-29T05:55:47;100271.19;;;-1.84;100.00
10921;BME280;5513;50.580;8.818;2023-01-29T05:58:16;100265.22;;;-1.70;100.00
10921;BME280;5513;50.580;8.818;2023-01-29T06:00:45;100260.88;;;-1.65;100.00
10921;BME280;5513;50.580;8.818;2023-01-29T06:03:13;100261.75;;;-1.71;100.00
10921;BME280;5513;50.580;8.818;2023-01-29T06:05:43;100267.81;;;-1.66;100.00
10921;BME280;5513;50.580;8.818;2023-01-29T06:08:13;100257.34;;;-1.84;100.00
10921;BME280;5513;50.580;8.818;2023-01-29T06:10:44;100266.03;;;-1.81;100.00
10921;BME280;5513;50.580;8.818;2023-01-29T06:13:12;100267.72;;;-1.84;100.00
10921;BME280;5513;50.580;8.818;2023-01-29T06:15:40;100273.78;;;-1.91;100.00
10921;BME280;5513;50.580;8.818;2023-01-29T06:18:09;100274.56;;;-2.03;100.00
10921;BME280;5513;50.580;8.818;2023-01-29T06:20:38;100273.81;;;-1.79;100.00
10921;BME280;5513;50.580;8.818;2023-01-29T06:23:06;100261.72;;;-1.76;100.00
10921;BME280;5513;50.580;8.818;2023-01-29T06:25:36;100270.41;;;-1.69;100.00
10921;BME280;5513;50.580;8.818;2023-01-29T06:28:05;100267.84;;;-1.58;100.00
10921;BME280;5513;50.580;8.818;2023-01-29T06:30:34;100265.22;;;-1.69;100.00
10921;BME280;5513;50.580;8.818;2023-01-29T06:33:02;100272.13;;;-1.66;100.00
10921;BME280;5513;50.580;8.818;2023-01-29T06:35:30;100272.16;;;-1.59;100.00
10921;BME280;5513;50.580;8.818;2023-01-29T06:37:59;100277.34;;;-1.60;100.00
10921;BME280;5513;50.580;8.818;2023-01-29T06:40:27;100274.78;;;-1.48;100.00
10921;BME280;5513;50.580;8.818;2023-01-29T06:42:59;100273.09;;;-1.32;100.00
10921;BME280;5513;50.580;8.818;2023-01-29T06:45:27;100266.16;;;-1.41;100.00
10921;BME280;5513;50.580;8.818;2023-01-29T06:47:55;100269.63;;;-1.43;100.00
10921;BME280;5513;50.580;8.818;2023-01-29T06:50:27;100274.78;;;-1.47;100.00
10921;BME280;5513;50.580;8.818;2023-01-29T06:52:55;100299.84;;;-1.70;100.00
10921;BME280;5513;50.580;8.818;2023-01-29T06:55:23;100307.53;;;-1.93;100.00
10921;BME280;5513;50.580;8.818;2023-01-29T06:57:51;100325.66;;;-2.02;100.00
10921;BME280;5513;50.580;8.818;2023-01-29T07:00:22;100317.88;;;-1.96;100.00
10921;BME280;5513;50.580;8.818;2023-01-29T07:02:50;100304.09;;;-1.87;100.00
10921;BME280;5513;50.580;8.818;2023-01-29T07:05:19;100298.00;;;-1.92;100.00
10921;BME280;5513;50.580;8.818;2023-01-29T07:07:48;100292.00;;;-1.81;100.00
10921;BME280;5513;50.580;8.818;2023-01-29T07:10:16;100287.69;;;-1.79;100.00
10921;BME280;5513;50.580;8.818;2023-01-29T07:12:45;100295.47;;;-1.80;100.00
10921;BME280;5513;50.580;8.818;2023-01-29T07:15:13;100298.06;;;-1.79;100.00
10921;BME280;5513;50.580;8.818;2023-01-29T07:17:56;100296.38;;;-1.72;100.00
10921;BME280;5513;50.580;8.818;2023-01-29T07:20:25;100287.63;;;-1.85;100.00
10921;BME280;5513;50.580;8.818;2023-01-29T07:22:55;100286.81;;;-1.78;100.00
10921;BME280;5513;50.580;8.818;2023-01-29T07:25:24;100296.38;;;-1.70;100.00
10921;BME280;5513;50.580;8.818;2023-01-29T07:27:52;100296.38;;;-1.70;100.00
10921;BME280;5513;50.580;8.818;2023-01-29T07:30:21;100308.50;;;-1.71;100.00
10921;BME280;5513;50.580;8.818;2023-01-29T07:32:49;100321.44;;;-1.82;100.00
10921;BME280;5513;50.580;8.818;2023-01-29T07:35:20;100321.38;;;-1.88;100.00
10921;BME280;5513;50.580;8.818;2023-01-29T07:37:49;100324.00;;;-1.85;100.00
10921;BME280;5513;50.580;8.818;2023-01-29T07:40:17;100324.78;;;-2.01;100.00
10921;BME280;5513;50.580;8.818;2023-01-29T07:42:46;100323.88;;;-2.05;100.00
10921;BME280;5513;50.580;8.818;2023-01-29T07:45:14;100327.34;;;-2.07;100.00
10921;BME280;5513;50.580;8.818;2023-01-29T07:47:43;100330.81;;;-2.07;100.00
10921;BME280;5513;50.580;8.818;2023-01-29T07:50:11;100342.84;;;-2.18;100.00
10921;BME280;5513;50.580;8.818;2023-01-29T07:52:41;100364.59;;;-1.99;100.00
10921;BME280;5513;50.580;8.818;2023-01-29T07:55:09;100361.16;;;-1.96;100.00
10921;BME280;5513;50.580;8.818;2023-01-29T07:57:38;100337.78;;;-1.96;100.00
10921;BME280;5513;50.580;8.818;2023-01-29T08:00:07;100321.22;;;-2.17;100.00
10921;BME280;5513;50.580;8.818;2023-01-29T08:02:36;100306.53;;;-2.16;100.00
10921;BME280;5513;50.580;8.818;2023-01-29T08:05:05;100303.13;;;-2.05;100.00
10921;BME280;5513;50.580;8.818;2023-01-29T08:07:33;100311.00;;;-1.89;100.00
10921;BME280;5513;50.580;8.818;2023-01-29T08:10:03;100304.91;;;-1.94;100.00
10921;BME280;5513;50.580;8.818;2023-01-29T08:12:40;100316.25;;;-1.79;100.00
10921;BME280;5513;50.580;8.818;2023-01-29T08:15:09;100296.38;;;-1.66;100.00
10921;BME280;5513;50.580;8.818;2023-01-29T08:17:41;100308.44;;;-1.77;100.00
10921;BME280;5513;50.580;8.818;2023-01-29T08:20:23;100305.06;;;-1.64;100.00
10921;BME280;5513;50.580;8.818;2023-01-29T08:22:57;100308.56;;;-1.54;100.00
10921;BME280;5513;50.580;8.818;2023-01-29T08:25:28;100300.78;;;-1.39;100.00
10921;BME280;5513;50.580;8.818;2023-01-29T08:27:57;100307.75;;;-1.35;100.00
10921;BME280;5513;50.580;8.818;2023-01-29T08:30:28;100317.25;;;-1.37;100.00
10921;BME280;5513;50.580;8.818;2023-01-29T08:32:58;100332.91;;;-1.23;100.00
10921;BME280;5513;50.580;8.818;2023-01-29T08:35:28;100323.38;;;-1.10;100.00
10921;BME280;5513;50.580;8.818;2023-01-29T08:37:58;100319.84;;;-1.37;100.00
10921;BME280;5513;50.580;8.818;2023-01-29T08:40:29;100313.81;;;-1.27;100.00
10921;BME280;5513;50.580;8.818;2023-01-29T08:42:59;100309.53;;;-1.14;100.00
10921;BME280;5513;50.580;8.818;2023-01-29T08:45:30;100316.47;;;-0.99;100.00
10921;BME280;5513;50.580;8.818;2023-01-29T08:48:01;100324.28;;;-0.78;100.00
10921;BME280;5513;50.580;8.818;2023-01-29T08:50:29;100339.03;;;-0.72;100.00
10921;BME280;5513;50.580;8.818;2023-01-29T08:53:02;100343.41;;;-0.56;100.00
10921;BME280;5513;50.580;8.818;2023-01-29T08:55:39;100333.84;;;-0.62;100.00
10921;BME280;5513;50.580;8.818;2023-01-29T08:58:09;100321.69;;;-0.70;100.00
10921;BME280;5513;50.580;8.818;2023-01-29T09:00:41;100342.50;;;-0.78;100.00
10921;BME280;5513;50.580;8.818;2023-01-29T09:03:09;100352.91;;;-0.63;100.00
10921;BME280;5513;50.580;8.818;2023-01-29T09:05:39;100355.53;;;-0.56;100.00
10921;BME280;5513;50.580;8.818;2023-01-29T09:08:09;100358.09;;;-0.81;100.00
10921;BME280;5513;50.580;8.818;2023-01-29T09:10:39;100354.66;;;-0.55;100.00
10921;BME280;5513;50.580;8.818;2023-01-29T09:13:08;100350.31;;;-0.81;100.00
10921;BME280;5513;50.580;8.818;2023-01-29T09:15:37;100340.78;;;-0.71;100.00
10921;BME280;5513;50.580;8.818;2023-01-29T09:18:09;100345.97;;;-0.62;100.00
10921;BME280;5513;50.580;8.818;2023-01-29T09:20:37;100341.63;;;-0.81;100.00
10921;BME280;5513;50.580;8.818;2023-01-29T09:23:06;100339.06;;;-0.63;100.00
10921;BME280;5513;50.580;8.818;2023-01-29T09:25:36;100348.59;;;-0.45;100.00
10921;BME280;5513;50.580;8.818;2023-01-29T09:28:06;100362.47;;;-0.51;100.00
10921;BME280;5513;50.580;8.818;2023-01-29T09:30:34;100372.88;;;-0.43;100.00
10921;BME280;5513;50.580;8.818;2023-01-29T09:33:06;100353.78;;;-0.24;100.00
10921;BME280;5513;50.580;8.818;2023-01-29T09:35:35;100356.41;;;-0.28;100.00
10921;BME280;5513;50.580;8.818;2023-01-29T09:38:04;100345.97;;;-0.15;100.00
10921;BME280;5513;50.580;8.818;2023-01-29T09:40:56;100335.56;;;-0.25;100.00
10921;BME280;5513;50.580;8.818;2023-01-29T09:43:39;100337.28;;;-0.40;100.00
10921;BME280;5513;50.580;8.818;2023-01-29T09:46:18;100324.28;;;-0.35;100.00
10921;BME280;5513;50.580;8.818;2023-01-29T09:49:00;100325.16;;;-0.32;100.00
10921;BME280;5513;50.580;8.818;2023-01-29T09:51:36;100312.16;;;-0.62;100.00
10921;BME280;5513;50.580;8.818;2023-01-29T09:54:15;100311.28;;;-0.79;100.00
10921;BME280;5513;50.580;8.818;2023-01-29T09:56:53;100314.75;;;-0.71;100.00
10921;BME280;5513;50.580;8.818;2023-01-29T09:59:30;100306.09;;;-0.47;100.00
10921;BME280;5513;50.580;8.818;2023-01-29T10:02:08;100305.19;;;-0.30;100.00
10921;BME280;5513;50.580;8.818;2023-01-29T10:04:49;100296.53;;;-0.33;100.00
10921;BME280;5513;50.580;8.818;2023-01-29T10:07:50;100300.00;;;-0.33;100.00
10921;BME280;5513;50.580;8.818;2023-01-29T10:10:38;100299.16;;;-0.68;100.00
10921;BME280;5513;50.580;8.818;2023-01-29T10:13:20;100298.28;;;-0.43;100.00
10921;BME280;5513;50.580;8.818;2023-01-29T10:16:15;100278.28;;;-0.24;100.00
10921;BME280;5513;50.580;8.818;2023-01-29T10:18:59;100278.13;;;0.23;100.00
10921;BME280;5513;50.580;8.818;2023-01-29T10:21:44;100278.97;;;0.33;100.00
10921;BME280;5513;50.580;8.818;2023-01-29T10:24:23;100278.81;;;0.57;100.00
10921;BME280;5513;50.580;8.818;2023-01-29T10:26:54;100270.03;;;0.78;100.00
10921;BME280;5513;50.580;8.818;2023-01-29T10:29:24;100269.13;;;0.87;100.00
10921;BME280;5513;50.580;8.818;2023-01-29T10:31:57;100274.84;;;1.32;100.00
10921;BME280;5513;50.580;8.818;2023-01-29T10:34:37;100252.97;;;1.43;100.00
10921;BME280;5513;50.580;8.818;2023-01-29T10:37:14;100251.22;;;1.47;100.00
10921;BME280;5513;50.580;8.818;2023-01-29T10:39:45;100241.59;;;0.39;100.00
10921;BME280;5513;50.580;8.818;2023-01-29T10:42:22;100244.97;;;0.54;100.00
10921;BME280;5513;50.580;8.818;2023-01-29T10:45:13;100230.16;;;0.61;100.00
10921;BME280;5513;50.580;8.818;2023-01-29T10:48:23;100230.41;;;0.21;100.00
10921;BME280;5513;50.580;8.818;2023-01-29T10:51:04;100229.44;;;0.39;100.00
10921;BME280;5513;50.580;8.818;2023-01-29T10:53:45;100222.50;;;0.40;100.00
10921;BME280;5513;50.580;8.818;2023-01-29T10:56:31;100234.50;;;0.62;100.00
10921;BME280;5513;50.580;8.818;2023-01-29T10:59:05;100229.53;;;0.21;100.00
10921;BME280;5513;50.580;8.818;2023-01-29T11:01:39;100233.88;;;0.22;100.00
10921;BME280;5513;50.580;8.818;2023-01-29T11:04:10;100234.59;;;0.48;100.00
10921;BME280;5513;50.580;8.818;2023-01-29T11:06:40;100217.34;;;0.29;100.00
10921;BME280;5513;50.580;8.818;2023-01-29T11:09:16;100209.69;;;-0.09;100.00
10921;BME280;5513;50.580;8.818;2023-01-29T11:11:49;100201.81;;;0.03;100.00
10921;BME280;5513;50.580;8.818;2023-01-29T11:14:23;100203.41;;;0.28;100.00
10921;BME280;5513;50.580;8.818;2023-01-29T11:16:52;100190.41;;;0.30;100.00
10921;BME280;5513;50.580;8.818;2023-01-29T11:19:35;100185.31;;;0.07;100.00
10921;BME280;5513;50.580;8.818;2023-01-29T11:22:04;100200.91;;;0.09;100.00
10921;BME280;5513;50.580;8.818;2023-01-29T11:24:42;100188.75;;;0.12;100.00
10921;BME280;5513;50.580;8.818;2023-01-29T11:27:16;100189.66;;;0.10;100.00
10921;BME280;5513;50.580;8.818;2023-01-29T11:29:51;100179.00;;;0.45;100.00
10921;BME280;5513;50.580;8.818;2023-01-29T11:32:32;100173.84;;;0.39;100.00
10921;BME280;5513;50.580;8.818;2023-01-29T11:35:21;100167.75;;;0.40;100.00
10921;BME280;5513;50.580;8.818;2023-01-29T11:38:05;100173.69;;;0.57;100.00
10921;BME280;5513;50.580;8.818;2023-01-29T11:40:39;100163.63;;;-0.01;100.00
10921;BME280;5513;50.580;8.818;2023-01-29T11:43:27;100150.63;;;0.02;100.00
10921;BME280;5513;50.580;8.818;2023-01-29T11:45:57;100155.75;;;0.13;100.00
10921;BME280;5513;50.580;8.818;2023-01-29T11:48:33;100148.84;;;0.12;100.00
10921;BME280;5513;50.580;8.818;2023-01-29T11:51:05;100141.78;;;0.31;100.00
10921;BME280;5513;50.580;8.818;2023-01-29T11:53:37;100137.69;;;-0.16;100.00
10921;BME280;5513;50.580;8.818;2023-01-29T11:56:17;100133.16;;;0.19;100.00
10921;BME280;5513;50.580;8.818;2023-01-29T11:58:49;100139.38;;;-0.06;100.00
10921;BME280;5513;50.580;8.818;2023-01-29T12:01:28;100119.50;;;-0.24;100.00
10921;BME280;5513;50.580;8.818;2023-01-29T12:03:58;100120.19;;;0.06;100.00
10921;BME280;5513;50.580;8.818;2023-01-29T12:06:33;100117.69;;;-0.07;100.00
10921;BME280;5513;50.580;8.818;2023-01-29T12:09:10;100112.41;;;-0.01;100.00
10921;BME280;5513;50.580;8.818;2023-01-29T12:11:42;100111.66;;;-0.18;100.00
10921;BME280;5513;50.580;8.818;2023-01-29T12:14:25;100102.00;;;0.03;100.00
10921;BME280;5513;50.580;8.818;2023-01-29T12:16:58;100102.69;;;0.26;100.00
10921;BME280;5513;50.580;8.818;2023-01-29T12:19:35;100091.50;;;0.13;100.00
10921;BME280;5513;50.580;8.818;2023-01-29T12:22:10;100089.03;;;-0.10;100.00
10921;BME280;5513;50.580;8.818;2023-01-29T12:24:49;100075.91;;;0.09;100.00
10921;BME280;5513;50.580;8.818;2023-01-29T12:27:23;100067.88;;;0.38;100.00
10921;BME280;5513;50.580;8.818;2023-01-29T12:29:58;100059.19;;;0.37;100.00
10921;BME280;5513;50.580;8.818;2023-01-29T12:32:34;100057.56;;;0.24;100.00
10921;BME280;5513;50.580;8.818;2023-01-29T12:35:11;100048.88;;;0.25;100.00
10921;BME280;5513;50.580;8.818;2023-01-29T12:37:52;100053.13;;;0.37;100.00
10921;BME280;5513;50.580;8.818;2023-01-29T12:40:26;100053.09;;;0.41;100.00
10921;BME280;5513;50.580;8.818;2023-01-29T12:43:01;100056.06;;;-0.06;100.00
10921;BME280;5513;50.580;8.818;2023-01-29T12:45:31;100053.41;;;0.02;100.00
10921;BME280;5513;50.580;8.818;2023-01-29T12:48:06;100048.22;;;-0.05;100.00
10921;BME280;5513;50.580;8.818;2023-01-29T12:50:36;100046.44;;;-0.01;100.00
10921;BME280;5513;50.580;8.818;2023-01-29T12:53:16;100048.28;;;-0.14;100.00
10921;BME280;5513;50.580;8.818;2023-01-29T12:55:52;100047.31;;;-0.01;100.00
10921;BME280;5513;50.580;8.818;2023-01-29T12:58:26;100034.00;;;0.41;100.00
10921;BME280;5513;50.580;8.818;2023-01-29T13:01:03;100040.16;;;0.27;100.00
10921;BME280;5513;50.580;8.818;2023-01-29T13:03:45;100036.34;;;0.65;100.00
10921;BME280;5513;50.580;8.818;2023-01-29T13:06:19;100039.94;;;0.53;100.00
10921;BME280;5513;50.580;8.818;2023-01-29T13:08:51;100034.88;;;0.40;100.00
10921;BME280;5513;50.580;8.818;2023-01-29T13:11:24;100031.53;;;0.22;100.00
10921;BME280;5513;50.580;8.818;2023-01-29T13:13:58;100039.38;;;0.21;100.00
10921;BME280;5513;50.580;8.818;2023-01-29T13:16:32;100042.88;;;0.14;100.00
10921;BME280;5513;50.580;8.818;2023-01-29T13:19:08;100035.66;;;0.46;100.00
10921;BME280;5513;50.580;8.818;2023-01-29T13:21:43;100038.25;;;0.48;100.00
10921;BME280;5513;50.580;8.818;2023-01-29T13:24:16;100036.94;;;-0.04;100.00
10921;BME280;5513;50.580;8.818;2023-01-29T13:26:46;100044.50;;;0.27;100.00
10921;BME280;5513;50.580;8.818;2023-01-29T13:29:22;100039.28;;;0.28;100.00